Time;durP1;ratioP1;P1;durP2;ratioP2;P2;SDS_P1;SDS_P2;PMS_P1;PMS_P2;Temp;Humidity;BMP_temperature;BMP_pressure;BME280_temperature;BME280_humidity;BME280_pressure;Samples;Min_cycle;Max_cycle;Signal;HPM_P1;HPM_P2
2021/09/15 07:12:37;;;;;;;11.05;9.23;;;19.40;99.90;;;;;;4945329;29;20460;-94
2021/09/15 07:15:08;;;;;;;14.33;8.67;;;19.70;99.90;;;;;;4937124;29;20884;-94
2021/09/15 07:17:42;;;;;;;13.18;8.02;;;20.00;99.90;;;;;;4936737;29;20443;-92
2021/09/15 07:20:10;;;;;;;12.82;8.75;;;20.20;99.90;;;;;;4935939;29;20428;-94
2021/09/15 07:22:41;;;;;;;9.90;7.82;;;20.20;99.90;;;;;;4937282;29;20499;-93
2021/09/15 07:25:09;;;;;;;12.43;8.73;;;20.30;99.90;;;;;;4938174;29;20449;-93
2021/09/15 07:27:36;;;;;;;11.13;8.07;;;20.20;99.90;;;;;;4920864;29;20427;-93
2021/09/15 07:30:04;;;;;;;12.32;9.02;;;20.10;99.90;;;;;;4937842;29;20427;-95
2021/09/15 07:35:33;;;;;;;12.18;8.73;;;20.00;99.90;;;;;;5164300;23;20438;-94
2021/09/15 07:38:00;;;;;;;14.68;8.35;;;19.90;99.90;;;;;;4939396;29;20442;-93
2021/09/15 07:40:27;;;;;;;15.40;8.10;;;19.90;99.90;;;;;;4939926;29;20436;-92
2021/09/15 07:42:55;;;;;;;10.13;7.97;;;20.10;99.90;;;;;;4939966;29;20438;-92
2021/09/15 07:45:22;;;;;;;11.00;8.00;;;20.20;99.90;;;;;;4940265;29;20768;-93
2021/09/15 07:47:49;;;;;;;11.57;8.35;;;20.30;99.90;;;;;;4940292;29;20512;-93
2021/09/15 07:50:22;;;;;;;14.35;8.60;;;20.30;99.90;;;;;;4941365;29;20512;-91
2021/09/15 07:52:49;;;;;;;11.43;8.13;;;20.30;99.90;;;;;;4940410;29;20483;-93
2021/09/15 07:55:16;;;;;;;12.57;8.40;;;20.40;99.90;;;;;;4939222;28;20434;-91
2021/09/15 07:57:44;;;;;;;10.70;8.02;;;20.60;99.90;;;;;;4938730;29;20957;-90
2021/09/15 08:00:16;;;;;;;11.23;8.30;;;20.60;99.90;;;;;;4933227;29;20425;-92
2021/09/15 08:02:43;;;;;;;9.73;7.70;;;20.70;99.90;;;;;;4938199;29;20437;-91
2021/09/15 08:05:10;;;;;;;11.27;7.70;;;20.80;99.90;;;;;;4939151;29;20432;-90
2021/09/15 08:07:37;;;;;;;13.05;7.60;;;20.70;99.90;;;;;;4939321;28;20493;-92
2021/09/15 08:10:05;;;;;;;9.47;7.47;;;20.70;99.90;;;;;;4939084;29;20429;-89
2021/09/15 08:12:32;;;;;;;9.77;7.85;;;20.70;99.90;;;;;;4939399;29;20433;-88
2021/09/15 08:15:00;;;;;;;9.98;7.95;;;20.70;99.90;;;;;;4939577;29;20422;-88
2021/09/15 08:17:29;;;;;;;8.82;7.80;;;20.70;99.90;;;;;;4920286;29;20439;-88
2021/09/15 08:19:56;;;;;;;11.50;7.25;;;20.80;99.90;;;;;;4936569;28;20494;-92
2021/09/15 08:22:24;;;;;;;10.40;7.47;;;20.90;99.90;;;;;;4940095;29;20449;-91
2021/09/15 08:24:51;;;;;;;9.30;7.07;;;21.00;99.90;;;;;;4922483;29;20430;-91
2021/09/15 08:27:50;;;;;;;10.68;6.43;;;21.20;99.90;;;;;;4921988;29;20578;-92
2021/09/15 08:30:17;;;;;;;9.70;6.20;;;21.50;99.90;;;;;;4919786;29;20837;-92
2021/09/15 08:32:44;;;;;;;7.83;5.60;;;21.80;99.90;;;;;;4920548;29;20519;-91
2021/09/15 08:35:11;;;;;;;7.70;5.75;;;21.90;99.90;;;;;;4920865;29;20912;-90
2021/09/15 08:37:38;;;;;;;7.43;5.93;;;22.00;99.90;;;;;;4932382;29;20493;-90
2021/09/15 08:40:08;;;;;;;7.43;5.57;;;22.10;99.90;;;;;;4942152;29;20419;-86
2021/09/15 08:42:37;;;;;;;8.20;5.40;;;22.20;99.90;;;;;;4933305;29;20416;-90
2021/09/15 08:45:09;;;;;;;7.68;5.88;;;22.10;99.90;;;;;;4927131;29;20514;-89
2021/09/15 08:47:41;;;;;;;9.63;5.97;;;22.00;99.90;;;;;;4920168;29;20443;-91
2021/09/15 08:50:10;;;;;;;9.07;5.40;;;22.20;99.90;;;;;;4920130;29;20829;-90
2021/09/15 08:52:37;;;;;;;7.75;5.47;;;22.40;99.90;;;;;;4919550;29;20427;-92
2021/09/15 08:55:06;;;;;;;8.45;5.00;;;22.40;99.90;;;;;;4919852;29;20432;-92
2021/09/15 08:57:33;;;;;;;11.38;5.20;;;22.40;99.90;;;;;;4920540;29;20470;-91
2021/09/15 09:00:06;;;;;;;6.70;5.10;;;22.50;99.90;;;;;;4920416;29;20427;-90
2021/09/15 09:02:39;;;;;;;5.82;5.03;;;22.60;99.90;;;;;;4920648;29;20431;-91
2021/09/15 09:05:11;;;;;;;6.07;5.15;;;22.60;99.90;;;;;;4921660;29;20427;-91
2021/09/15 09:07:38;;;;;;;6.53;4.65;;;22.80;99.90;;;;;;4919037;29;20438;-92
2021/09/15 09:10:10;;;;;;;7.80;4.68;;;23.00;99.90;;;;;;4923080;29;20999;-91
2021/09/15 09:12:39;;;;;;;6.95;4.30;;;23.10;99.90;;;;;;4923005;29;20431;-91
2021/09/15 09:15:19;;;;;;;6.03;4.40;;;23.00;99.90;;;;;;4943554;29;20491;-91
2021/09/15 09:17:47;;;;;;;8.32;4.70;;;23.00;99.90;;;;;;4925270;29;20450;-91
2021/09/15 09:20:30;;;;;;;7.22;4.90;;;23.00;99.90;;;;;;4922975;29;20932;-91
2021/09/15 09:23:08;;;;;;;7.45;4.70;;;23.20;99.90;;;;;;4922426;29;20435;-90
2021/09/15 09:25:46;;;;;;;7.88;4.88;;;23.10;99.90;;;;;;4922844;29;20502;-90
2021/09/15 09:28:34;;;;;;;6.68;4.78;;;23.30;99.90;;;;;;4925169;29;20833;-90
2021/09/15 09:31:06;;;;;;;6.93;4.60;;;23.60;99.90;;;;;;4922148;29;20439;-90
2021/09/15 09:33:34;;;;;;;6.15;4.85;;;23.70;99.90;;;;;;4939483;29;20423;-89
2021/09/15 09:36:07;;;;;;;6.00;4.30;;;23.60;99.90;;;;;;4922407;29;20443;-86
2021/09/15 09:38:42;;;;;;;7.50;4.40;;;23.60;99.90;;;;;;4921618;29;20443;-87
2021/09/15 09:41:16;;;;;;;5.93;4.15;;;23.50;99.90;;;;;;4922899;29;20415;-86
2021/09/15 09:43:47;;;;;;;6.22;4.32;;;23.30;99.90;;;;;;4922309;29;20420;-87
2021/09/15 09:46:18;;;;;;;8.80;4.30;;;23.30;99.90;;;;;;4939082;29;20419;-86
2021/09/15 09:48:53;;;;;;;5.68;3.88;;;23.50;99.90;;;;;;4907431;29;20450;-87
2021/09/15 09:51:23;;;;;;;7.50;3.97;;;23.80;99.90;;;;;;4921778;29;20439;-89
2021/09/15 09:54:05;;;;;;;8.50;4.00;;;24.10;99.90;;;;;;4924716;29;20615;-89
2021/09/15 09:56:35;;;;;;;5.90;3.97;;;24.20;99.90;;;;;;4922696;29;20494;-88
2021/09/15 09:59:04;;;;;;;6.40;3.92;;;24.40;99.90;;;;;;4922603;29;20454;-90
2021/09/15 10:01:34;;;;;;;5.78;3.90;;;24.60;99.90;;;;;;4908547;29;20424;-92
2021/09/15 10:04:03;;;;;;;5.77;3.77;;;24.60;99.90;;;;;;4932875;29;20464;-89
2021/09/15 10:06:30;;;;;;;5.93;4.23;;;24.50;99.90;;;;;;4928898;29;21003;-90
2021/09/15 10:08:58;;;;;;;6.32;3.78;;;24.50;99.90;;;;;;4926707;29;20499;-90
2021/09/15 10:11:26;;;;;;;5.00;3.65;;;24.70;99.90;;;;;;4945100;29;20432;-90
2021/09/15 10:13:53;;;;;;;7.18;3.80;;;25.00;99.80;;;;;;4927268;29;20903;-90
2021/09/15 10:16:22;;;;;;;5.15;4.18;;;24.90;99.70;;;;;;4927386;29;20431;-89
2021/09/15 10:19:07;;;;;;;5.68;3.80;;;24.80;99.20;;;;;;4934539;28;20442;-93
2021/09/15 10:21:36;;;;;;;6.57;3.93;;;25.00;99.90;;;;;;4944603;28;20451;-89
2021/09/15 10:24:04;;;;;;;8.63;5.20;;;25.20;99.90;;;;;;4939372;29;20422;-90
2021/09/15 10:26:36;;;;;;;7.43;5.70;;;25.30;99.90;;;;;;4936206;29;20464;-90
2021/09/15 10:29:33;;;;;;;8.73;6.55;;;25.30;99.90;;;;;;4929995;29;20487;-91
2021/09/15 10:32:09;;;;;;;8.30;6.87;;;25.00;99.90;;;;;;4919916;29;20423;-89
2021/09/15 10:34:39;;;;;;;13.80;7.30;;;24.80;99.90;;;;;;4918977;29;20465;-89
2021/09/15 10:37:12;;;;;;;11.07;7.28;;;24.60;99.90;;;;;;4920554;29;20748;-91
2021/09/15 10:39:57;;;;;;;9.70;7.20;;;24.20;99.90;;;;;;4919874;29;20465;-89
2021/09/15 10:45:13;;;;;;;16.30;8.07;;;24.10;99.90;;;;;;4919112;29;20508;-95
2021/09/15 10:47:47;;;;;;;10.70;7.95;;;24.10;99.90;;;;;;4918341;29;20437;-96
2021/09/15 10:50:46;;;;;;;14.55;8.48;;;24.30;99.90;;;;;;4920526;29;20914;-96
2021/09/15 10:53:13;;;;;;;13.48;8.60;;;24.30;99.90;;;;;;4906826;29;20433;-94
2021/09/15 10:55:41;;;;;;;14.07;8.82;;;24.20;99.90;;;;;;4922619;29;20439;-93
2021/09/15 10:58:20;;;;;;;13.17;9.00;;;24.30;99.90;;;;;;4934922;29;20448;-95
2021/09/15 11:01:03;;;;;;;14.10;9.87;;;24.30;99.90;;;;;;4921115;29;20429;-94
2021/09/15 11:03:50;;;;;;;16.80;10.30;;;24.20;99.90;;;;;;4919863;29;20433;-95
2021/09/15 11:06:23;;;;;;;15.32;10.57;;;23.70;99.90;;;;;;4918062;29;20435;-94
2021/09/15 11:08:55;;;;;;;19.40;11.57;;;23.40;99.90;;;;;;4918229;29;20440;-96
2021/09/15 11:11:22;;;;;;;18.05;11.50;;;23.00;99.90;;;;;;4920844;29;20465;-96
2021/09/15 11:14:06;;;;;;;18.65;11.73;;;22.90;99.90;;;;;;4919324;29;20823;-94
2021/09/15 11:16:41;;;;;;;15.30;11.77;;;23.00;99.90;;;;;;4920794;29;20863;-96
2021/09/15 11:19:11;;;;;;;16.73;12.68;;;23.20;99.90;;;;;;4922080;29;20523;-95
2021/09/15 11:21:40;;;;;;;15.95;12.75;;;23.40;99.90;;;;;;4922209;29;20546;-94
2021/09/15 11:24:15;;;;;;;25.10;13.55;;;23.60;99.90;;;;;;4918822;29;20437;-94
2021/09/15 11:26:59;;;;;;;18.85;13.27;;;23.50;99.90;;;;;;4920044;29;20450;-95
2021/09/15 11:29:48;;;;;;;19.80;13.15;;;23.50;99.90;;;;;;4918400;29;20429;-93
2021/09/15 11:32:17;;;;;;;19.38;13.60;;;23.60;99.90;;;;;;4916648;29;20437;-95
2021/09/15 11:34:47;;;;;;;19.58;13.80;;;23.90;99.90;;;;;;4916992;29;20456;-95
2021/09/15 11:37:28;;;;;;;19.77;12.70;;;24.00;99.90;;;;;;4920017;29;20512;-95
2021/09/15 11:40:07;;;;;;;16.67;12.60;;;24.00;99.90;;;;;;4916864;29;20839;-95
2021/09/15 11:42:36;;;;;;;20.92;12.73;;;23.90;99.90;;;;;;4917703;29;20425;-96
2021/09/15 11:45:26;;;;;;;19.70;13.07;;;23.60;99.90;;;;;;4917527;29;20436;-96
2021/09/15 11:47:55;;;;;;;25.38;13.27;;;23.40;99.90;;;;;;4919418;29;20508;-93
2021/09/15 11:50:24;;;;;;;25.30;13.77;;;23.30;99.90;;;;;;4927401;29;20501;-92
2021/09/15 11:57:04;;;;;;;;;;;;;;;;;;;;;
2021/09/15 12:04:18;;;;;;;19.73;12.27;;;23.60;99.90;;;;;;4976858;28;20482;-96
2021/09/15 12:39:37;;;;;;;17.90;11.77;;;24.30;99.90;;;;;;5863181;23;20429;-96
2021/09/15 12:42:39;;;;;;;18.38;12.73;;;24.10;99.90;;;;;;4831936;29;20428;-96
2021/09/15 12:45:59;;;;;;;17.63;12.85;;;23.60;99.90;;;;;;4800176;29;20447;-96
2021/09/15 12:52:18;;;;;;;19.43;12.60;;;23.80;99.90;;;;;;5310852;23;20460;-94
2021/09/15 13:07:22;;;;;;;18.63;12.05;;;24.80;99.90;;;;;;5925020;23;20425;31
2021/09/15 13:09:50;;;;;;;16.83;11.43;;;24.60;99.90;;;;;;4900348;29;20443;-92
2021/09/15 13:12:23;;;;;;;26.38;11.93;;;24.40;99.90;;;;;;4916210;29;20431;-91
2021/09/15 13:14:54;;;;;;;18.55;12.07;;;24.30;99.90;;;;;;4916822;29;20462;-93
2021/09/15 13:17:34;;;;;;;18.45;12.48;;;24.20;99.90;;;;;;4885879;29;20436;-93
2021/09/15 13:20:01;;;;;;;18.27;11.48;;;24.10;99.90;;;;;;4902216;29;20444;-93
2021/09/15 13:22:28;;;;;;;19.50;12.05;;;24.10;99.90;;;;;;4898861;29;20432;-91
2021/09/15 13:24:55;;;;;;;20.75;12.02;;;24.00;99.90;;;;;;4899914;29;20444;-91
2021/09/15 13:27:22;;;;;;;21.42;13.43;;;23.90;99.90;;;;;;4897751;29;20436;-91
2021/09/15 13:29:49;;;;;;;24.20;12.70;;;23.70;99.90;;;;;;4897857;29;20429;-91
2021/09/15 13:32:16;;;;;;;22.98;12.57;;;23.50;99.90;;;;;;4907900;29;20494;-91
2021/09/15 13:34:43;;;;;;;22.50;13.82;;;23.50;99.90;;;;;;4919919;29;20445;-91
2021/09/15 13:37:10;;;;;;;19.05;12.32;;;23.60;99.90;;;;;;4910742;29;20437;-91
2021/09/15 13:39:38;;;;;;;22.50;12.38;;;23.50;99.90;;;;;;4902298;29;20452;-92
2021/09/15 13:42:05;;;;;;;19.15;12.82;;;23.30;99.90;;;;;;4897277;29;20948;-91
2021/09/15 13:44:33;;;;;;;18.83;12.70;;;23.20;99.90;;;;;;4897392;29;20496;-91
2021/09/15 13:46:59;;;;;;;21.80;13.15;;;23.10;99.90;;;;;;4897337;29;20428;-91
2021/09/15 13:49:27;;;;;;;19.80;11.77;;;23.00;99.90;;;;;;4896877;29;20436;-90
2021/09/15 13:51:54;;;;;;;20.23;12.40;;;23.00;99.90;;;;;;4897765;29;20443;-91
2021/09/15 13:54:43;;;;;;;20.17;13.18;;;23.00;99.90;;;;;;4894311;29;20459;-91
2021/09/15 13:57:11;;;;;;;22.10;13.80;;;22.90;99.90;;;;;;4896730;29;20444;-91
2021/09/15 13:59:39;;;;;;;21.38;12.90;;;22.90;99.90;;;;;;4897901;29;20453;-91
2021/09/15 14:02:07;;;;;;;44.03;15.80;;;22.90;99.90;;;;;;4897129;29;20433;-91
2021/09/15 14:04:35;;;;;;;20.02;13.23;;;23.00;99.90;;;;;;4881317;29;20440;-92
2021/09/15 14:07:03;;;;;;;19.88;13.20;;;23.10;99.90;;;;;;4896396;29;20846;-91
2021/09/15 14:09:30;;;;;;;19.87;13.00;;;23.10;99.90;;;;;;4896488;29;20778;-90
2021/09/15 14:12:17;;;;;;;20.70;13.18;;;23.00;99.90;;;;;;4895394;29;20457;-90
2021/09/15 14:14:44;;;;;;;17.65;12.75;;;23.00;99.90;;;;;;4897183;29;20428;-92
2021/09/15 14:17:12;;;;;;;21.57;12.47;;;22.90;99.90;;;;;;4896914;29;20459;-91
2021/09/15 14:19:40;;;;;;;17.23;12.30;;;22.90;99.90;;;;;;4908368;29;20452;-92
2021/09/15 14:22:07;;;;;;;19.20;12.43;;;23.00;99.90;;;;;;4898534;29;20436;-91
2021/09/15 14:24:38;;;;;;;18.60;12.37;;;23.00;99.90;;;;;;4896248;29;20439;-92
2021/09/15 14:27:05;;;;;;;22.33;12.05;;;23.10;99.90;;;;;;4896782;29;20440;-92
2021/09/15 14:29:32;;;;;;;23.23;12.68;;;23.10;99.90;;;;;;4896611;29;20466;-92
2021/09/15 14:31:59;;;;;;;19.05;12.05;;;23.20;99.90;;;;;;4896146;29;20432;-91
2021/09/15 14:34:27;;;;;;;21.02;12.00;;;23.20;99.90;;;;;;4895850;29;20795;-91
2021/09/15 14:36:53;;;;;;;19.42;13.23;;;23.30;99.90;;;;;;4896035;29;20440;-92
2021/09/15 14:39:20;;;;;;;21.83;13.30;;;23.40;99.90;;;;;;4895512;29;20477;-92
2021/09/15 14:41:48;;;;;;;18.97;12.60;;;23.50;99.90;;;;;;4897584;29;20425;-92
2021/09/15 14:44:15;;;;;;;17.88;12.30;;;23.40;99.90;;;;;;4896246;29;20440;-93
2021/09/15 14:46:42;;;;;;;17.92;12.05;;;23.50;99.90;;;;;;4896223;29;20433;-92
2021/09/15 14:49:09;;;;;;;20.83;13.57;;;23.30;99.90;;;;;;4881288;29;20437;-92
2021/09/15 14:51:36;;;;;;;20.98;12.20;;;23.40;99.90;;;;;;4895915;29;20440;-92
2021/09/15 14:54:03;;;;;;;21.60;11.70;;;23.40;99.90;;;;;;4895875;29;20428;-91
2021/09/15 14:56:30;;;;;;;21.27;11.95;;;23.50;99.90;;;;;;4895871;29;20452;-92
2021/09/15 14:58:57;;;;;;;18.85;11.60;;;23.50;99.90;;;;;;4896281;29;20764;-94
2021/09/15 15:01:24;;;;;;;22.77;12.30;;;23.80;99.90;;;;;;4899671;29;20452;-93
2021/09/15 15:03:51;;;;;;;17.33;11.70;;;24.00;99.90;;;;;;4918110;29;20420;-92
2021/09/15 15:06:18;;;;;;;20.00;12.23;;;24.00;99.90;;;;;;4917020;29;20494;-92
2021/09/15 15:08:45;;;;;;;18.73;11.93;;;24.00;99.90;;;;;;4913550;29;20439;-91
2021/09/15 15:11:12;;;;;;;18.58;12.00;;;23.80;99.90;;;;;;4900500;29;20816;-91
2021/09/15 15:13:39;;;;;;;24.08;12.07;;;23.30;99.90;;;;;;4895139;29;20444;-91
2021/09/15 15:16:06;;;;;;;17.85;11.52;;;23.10;99.90;;;;;;4895623;29;20429;-91
2021/09/15 15:18:34;;;;;;;18.13;12.23;;;22.90;99.90;;;;;;4894857;29;20456;-91
2021/09/15 15:21:01;;;;;;;19.05;11.63;;;22.80;99.90;;;;;;4907858;29;20416;-90
2021/09/15 15:23:28;;;;;;;21.38;11.77;;;22.60;99.90;;;;;;4917192;29;20461;-94
2021/09/15 15:25:55;;;;;;;17.13;11.80;;;22.50;99.90;;;;;;4901701;29;20441;-92
2021/09/15 15:28:22;;;;;;;17.38;12.02;;;22.40;99.90;;;;;;4896667;29;20492;-92
2021/09/15 15:30:49;;;;;;;19.90;12.03;;;22.20;99.90;;;;;;4894995;29;20436;-92
2021/09/15 15:33:17;;;;;;;19.50;12.13;;;22.10;99.90;;;;;;4895131;29;20947;-88
2021/09/15 15:35:47;;;;;;;21.30;12.10;;;22.00;99.90;;;;;;4879346;29;20420;-88
2021/09/15 15:38:16;;;;;;;22.67;12.38;;;22.00;99.90;;;;;;4894601;29;20436;-87
2021/09/15 15:41:43;;;;;;;21.20;12.07;;;21.90;99.90;;;;;;4900024;29;20445;-95
2021/09/15 16:06:38;;;;;;;19.70;11.35;;;21.10;99.90;;;;;;5766005;23;20441;-95
2021/09/15 16:09:06;;;;;;;17.75;11.70;;;21.20;99.90;;;;;;4945985;29;20489;-96
2021/09/15 16:11:34;;;;;;;24.25;12.55;;;20.90;99.90;;;;;;4942006;29;20465;-95
2021/09/15 16:14:02;;;;;;;18.30;12.35;;;20.80;99.90;;;;;;4937351;29;20434;-95
2021/09/15 16:16:29;;;;;;;20.83;13.18;;;20.60;99.90;;;;;;4940142;29;20457;-96
2021/09/15 16:18:57;;;;;;;22.93;13.67;;;20.60;99.90;;;;;;4942855;29;20440;-95
2021/09/15 16:21:25;;;;;;;18.83;13.57;;;20.40;99.90;;;;;;4942143;29;20975;-95
2021/09/15 16:23:55;;;;;;;22.47;13.70;;;20.20;99.90;;;;;;4943590;29;20426;-94
2021/09/15 16:26:23;;;;;;;20.38;13.23;;;20.10;99.90;;;;;;4940099;29;20441;-95
2021/09/15 16:28:50;;;;;;;18.70;10.18;;;20.00;99.90;;;;;;4954844;28;20489;-95
2021/09/15 16:31:21;;;;;;;18.45;9.68;;;19.90;99.90;;;;;;4962841;28;20402;-94
2021/09/15 16:33:49;;;;;;;15.23;8.35;;;19.70;99.90;;;;;;4954823;29;20446;-95
2021/09/15 16:36:23;;;;;;;20.35;8.48;;;19.70;99.90;;;;;;4944326;29;20429;-95
2021/09/15 16:38:53;;;;;;;14.27;8.30;;;19.70;99.90;;;;;;4939909;29;20434;-95
2021/09/15 16:41:27;;;;;;;14.15;8.68;;;19.70;99.90;;;;;;4940541;29;20428;-93
2021/09/15 16:43:57;;;;;;;15.48;9.40;;;19.60;99.90;;;;;;4910210;29;20499;-95
2021/09/15 16:46:32;;;;;;;23.60;9.38;;;19.60;99.90;;;;;;4941095;29;20508;-95
2021/09/15 16:49:01;;;;;;;16.33;9.40;;;19.60;99.90;;;;;;4940322;29;20426;-94
2021/09/15 16:51:32;;;;;;;14.20;8.98;;;19.60;99.90;;;;;;4940593;29;20453;-94
2021/09/15 16:54:17;;;;;;;24.50;9.25;;;19.50;99.90;;;;;;4913792;29;20851;-94
2021/09/15 16:56:47;;;;;;;13.15;9.00;;;19.50;99.90;;;;;;4939722;29;20926;-95
2021/09/15 16:59:31;;;;;;;16.08;8.52;;;19.50;99.90;;;;;;4941769;29;20474;-94
2021/09/15 17:01:59;;;;;;;14.73;9.35;;;19.40;99.90;;;;;;4939734;29;20430;-95
2021/09/15 17:04:29;;;;;;;18.20;9.50;;;19.30;99.90;;;;;;4939401;29;20434;-94
2021/09/15 17:07:00;;;;;;;12.15;8.90;;;19.30;99.90;;;;;;4939642;29;20433;-95
2021/09/15 17:09:30;;;;;;;12.75;9.73;;;19.30;99.90;;;;;;4924835;29;20433;-94
2021/09/15 17:12:06;;;;;;;17.00;10.20;;;19.20;99.90;;;;;;4940775;29;20895;-95
2021/09/15 17:14:42;;;;;;;16.33;10.27;;;19.30;99.90;;;;;;4923848;29;20441;-95
2021/09/15 17:17:11;;;;;;;14.77;10.13;;;19.20;99.90;;;;;;4949677;23;20782;-94
2021/09/15 17:19:39;;;;;;;16.70;10.77;;;19.20;99.90;;;;;;4943928;29;20633;-96
2021/09/15 17:22:06;;;;;;;15.10;10.68;;;19.10;99.90;;;;;;4938887;29;20453;-96
2021/09/15 17:24:33;;;;;;;13.18;10.65;;;19.10;99.90;;;;;;4939870;29;20432;-94
2021/09/15 17:27:00;;;;;;;15.85;10.75;;;19.00;99.90;;;;;;4939771;29;20437;-96
2021/09/15 17:29:27;;;;;;;15.88;10.70;;;19.00;99.90;;;;;;4940236;29;20953;-95
2021/09/15 17:31:55;;;;;;;14.32;11.27;;;19.00;99.90;;;;;;4942837;29;20421;-95
2021/09/15 17:34:24;;;;;;;14.65;11.07;;;19.00;99.90;;;;;;4942472;29;20430;-95
2021/09/15 17:37:09;;;;;;;18.30;11.48;;;19.00;99.90;;;;;;4962697;23;20438;-94
2021/09/15 17:39:36;;;;;;;17.83;11.77;;;18.90;99.90;;;;;;4929307;29;20431;-95
2021/09/15 17:42:04;;;;;;;16.20;12.40;;;18.90;99.90;;;;;;4931280;29;20855;-96
2021/09/15 17:44:35;;;;;;;15.40;11.50;;;19.10;99.90;;;;;;4927178;29;20431;-96
2021/09/15 17:47:09;;;;;;;13.93;9.50;;;19.10;99.90;;;;;;4942468;29;20932;-96
2021/09/15 17:49:36;;;;;;;13.60;9.10;;;19.10;99.90;;;;;;4925544;29;20523;-96
2021/09/15 17:52:05;;;;;;;11.05;7.97;;;19.00;99.90;;;;;;4910591;29;20967;-96
2021/09/15 17:54:32;;;;;;;9.95;8.20;;;19.00;99.90;;;;;;4925529;29;20431;-96
2021/09/15 17:57:00;;;;;;;14.02;8.73;;;19.10;99.90;;;;;;4927472;29;20424;-96
2021/09/15 17:59:28;;;;;;;16.20;7.90;;;19.10;99.90;;;;;;4933593;29;20447;-96
2021/09/15 18:02:01;;;;;;;10.30;7.75;;;19.10;99.90;;;;;;4945717;29;20416;-96
2021/09/15 18:04:32;;;;;;;12.80;8.43;;;19.00;99.90;;;;;;4945218;29;20423;-96
2021/09/15 18:07:19;;;;;;;22.63;10.77;;;19.00;99.90;;;;;;4943534;29;20415;-96
2021/09/15 18:09:48;;;;;;;20.40;11.35;;;19.00;99.90;;;;;;4930104;29;20513;-96
2021/09/15 18:12:29;;;;;;;15.68;11.35;;;18.90;99.90;;;;;;4928643;29;20494;-96
2021/09/15 18:15:00;;;;;;;23.20;11.93;;;18.80;99.90;;;;;;4930659;29;20427;-96
2021/09/15 18:17:40;;;;;;;17.00;11.95;;;18.70;99.90;;;;;;4928872;29;20519;-96
2021/09/15 18:20:09;;;;;;;18.83;12.50;;;18.70;99.90;;;;;;4924697;29;20522;-96
2021/09/15 18:22:37;;;;;;;16.55;12.68;;;18.50;99.90;;;;;;4907539;29;20432;-96
2021/09/15 18:25:05;;;;;;;20.67;12.77;;;18.40;99.90;;;;;;4922978;29;20431;-96
2021/09/15 18:27:38;;;;;;;32.72;13.68;;;18.50;99.90;;;;;;4927626;29;20453;-96
2021/09/15 18:30:31;;;;;;;25.17;14.07;;;18.40;99.90;;;;;;5037929;23;20442;-95
2021/09/15 18:37:03;;;;;;;25.42;17.02;;;18.10;99.90;;;;;;4961290;28;20517;-96
2021/09/15 18:45:57;;;;;;;20.83;15.45;;;17.60;99.90;;;;;;4954590;28;20516;-96
2021/09/15 18:48:29;;;;;;;20.05;15.02;;;17.70;99.90;;;;;;4916517;29;20502;-95
2021/09/15 18:51:10;;;;;;;24.45;16.67;;;17.70;99.90;;;;;;4930452;29;20419;-96
2021/09/15 18:53:39;;;;;;;25.50;17.67;;;17.60;99.90;;;;;;4942984;29;20435;-96
2021/09/15 18:56:13;;;;;;;22.00;17.20;;;17.50;99.90;;;;;;4927570;29;20499;-96
2021/09/15 18:58:54;;;;;;;24.05;17.27;;;17.60;99.90;;;;;;4942780;29;20423;-96
2021/09/15 19:01:22;;;;;;;20.83;16.23;;;17.60;99.90;;;;;;4926407;29;20510;-96
2021/09/15 19:03:54;;;;;;;19.60;16.00;;;17.60;99.90;;;;;;4895589;29;20439;-96
2021/09/15 19:06:26;;;;;;;22.08;15.45;;;17.60;99.90;;;;;;4928413;29;20523;-96
2021/09/15 19:09:16;;;;;;;22.13;16.25;;;17.40;99.90;;;;;;4928557;29;20431;-96
2021/09/15 19:12:16;;;;;;;20.97;15.50;;;17.60;99.90;;;;;;4910509;29;20431;-96
2021/09/15 19:15:20;;;;;;;19.35;15.20;;;17.50;99.90;;;;;;4929396;29;20435;-96
2021/09/15 19:18:14;;;;;;;22.27;16.58;;;17.60;99.90;;;;;;4865265;29;20422;-96
2021/09/15 19:20:47;;;;;;;19.55;15.43;;;17.40;99.90;;;;;;4858888;29;20944;-96
2021/09/15 19:23:27;;;;;;;21.42;16.15;;;17.50;99.90;;;;;;4850906;29;20876;-96
2021/09/15 19:26:09;;;;;;;21.27;16.42;;;17.40;99.90;;;;;;4854662;29;20431;-96
2021/09/15 19:28:55;;;;;;;23.58;18.15;;;17.20;99.90;;;;;;4846943;29;20465;-96
2021/09/15 19:31:37;;;;;;;22.07;17.97;;;17.00;99.90;;;;;;4870835;28;20418;-96
2021/09/15 19:34:20;;;;;;;19.92;14.02;;;16.90;99.90;;;;;;4930007;29;20426;-96
2021/09/15 19:36:48;;;;;;;14.45;12.25;;;16.70;99.90;;;;;;4928496;29;20601;-96
2021/09/15 19:39:23;;;;;;;18.00;11.52;;;16.60;99.90;;;;;;4923379;29;20750;-96
2021/09/15 19:41:52;;;;;;;19.60;12.93;;;16.70;99.90;;;;;;4921280;29;20514;-96
2021/09/15 19:44:19;;;;;;;18.42;12.90;;;16.80;99.90;;;;;;4921512;29;20850;-96
2021/09/15 19:46:47;;;;;;;13.90;9.40;;;16.80;99.90;;;;;;4922684;29;20514;-95
2021/09/15 19:49:14;;;;;;;12.48;9.45;;;16.80;99.90;;;;;;4922107;29;20776;-96
2021/09/15 19:51:42;;;;;;;12.63;10.20;;;16.90;99.90;;;;;;4922247;29;20457;-96
2021/09/15 19:54:14;;;;;;;13.80;10.15;;;17.00;99.90;;;;;;4921147;29;20432;-96
2021/09/15 19:56:42;;;;;;;13.90;10.65;;;17.20;99.90;;;;;;4920987;29;20435;-96
2021/09/15 19:59:13;;;;;;;13.57;10.27;;;16.90;99.90;;;;;;4920851;29;20466;-96
2021/09/15 20:01:43;;;;;;;16.02;11.05;;;16.80;99.90;;;;;;4920817;29;20423;-95
2021/09/15 20:04:11;;;;;;;15.50;11.00;;;16.60;99.90;;;;;;4920983;29;20796;-96
2021/09/15 20:06:38;;;;;;;15.57;11.55;;;16.50;99.90;;;;;;4921116;29;20507;-96
2021/09/15 20:09:05;;;;;;;17.75;12.02;;;16.50;99.90;;;;;;4920268;29;20510;-96
2021/09/15 20:11:42;;;;;;;24.20;14.60;;;16.50;99.90;;;;;;4920976;29;20516;-96
2021/09/15 20:14:09;;;;;;;19.77;14.55;;;16.50;99.90;;;;;;4920106;29;20458;-96
2021/09/15 20:16:37;;;;;;;18.58;13.35;;;16.50;99.90;;;;;;4920552;29;21003;-96
2021/09/15 20:19:04;;;;;;;15.73;12.38;;;16.60;99.90;;;;;;4920191;29;20459;-96
2021/09/15 20:21:33;;;;;;;15.82;10.93;;;16.50;99.90;;;;;;4920530;29;20443;-96
2021/09/15 20:24:00;;;;;;;19.08;10.88;;;16.50;99.90;;;;;;4920066;29;20450;-96
2021/09/15 20:26:29;;;;;;;15.68;10.50;;;16.60;99.90;;;;;;4920582;29;20772;-96
2021/09/15 20:28:56;;;;;;;14.33;9.07;;;16.70;99.90;;;;;;4920567;29;20928;-96
2021/09/15 20:31:23;;;;;;;17.23;10.32;;;16.80;99.90;;;;;;4921060;29;20519;-95
2021/09/15 20:33:51;;;;;;;16.37;10.17;;;16.90;99.90;;;;;;4922889;29;20975;-96
2021/09/15 20:36:18;;;;;;;14.55;10.18;;;17.00;99.90;;;;;;4920547;29;20916;-96
2021/09/15 20:38:46;;;;;;;13.98;10.15;;;16.90;99.90;;;;;;4920168;29;20483;-94
2021/09/15 20:41:13;;;;;;;13.90;10.30;;;16.90;99.90;;;;;;4920324;29;20439;-96
2021/09/15 20:43:40;;;;;;;12.80;10.52;;;16.80;99.90;;;;;;4920313;29;20818;-95
2021/09/15 20:46:07;;;;;;;14.18;10.73;;;16.80;99.90;;;;;;4920355;29;20435;-96
2021/09/15 20:48:35;;;;;;;15.45;11.25;;;16.80;99.90;;;;;;4920231;29;21046;-95
2021/09/15 20:51:03;;;;;;;14.98;12.07;;;16.70;99.90;;;;;;4929018;28;20410;-94
2021/09/15 20:53:31;;;;;;;18.75;11.50;;;16.70;99.90;;;;;;4943042;28;20403;-96
2021/09/15 20:55:58;;;;;;;17.20;11.43;;;16.70;99.90;;;;;;4941568;28;20418;-94
2021/09/15 20:58:25;;;;;;;14.30;10.43;;;16.60;99.90;;;;;;4935373;29;20416;-96
2021/09/15 21:00:53;;;;;;;14.95;9.00;;;16.60;99.90;;;;;;4921258;29;20450;-95
2021/09/15 21:03:20;;;;;;;13.20;9.50;;;16.70;99.90;;;;;;4920255;29;20434;-95
2021/09/15 21:05:47;;;;;;;11.68;8.57;;;16.70;99.90;;;;;;4923862;29;20953;-95
2021/09/15 21:08:14;;;;;;;12.93;9.00;;;16.90;99.90;;;;;;4923018;29;20976;-95
2021/09/15 23:37:29;;;;;;;17.27;12.82;;;16.10;99.90;;;;;;3703029;23;22109;-93
2021/09/15 23:43:35;;;;;;;18.23;12.90;;;16.00;99.90;;;;;;5045619;23;20469;-95
2021/09/15 23:46:06;;;;;;;18.67;13.48;;;16.00;99.90;;;;;;4949442;29;20783;-96
